Time,TemperatureF,DewpointF,PressureIn,WindDirection,WindDirectionDegrees,WindSpeedMPH,WindSpeedGustMPH,Humidity,HourlyPrecipIn,Conditions,Clouds,dailyrainin,SolarRadiationWatts/m^2,SoftwareType,DateUTC
2013-03-05 00:00:00,27.0,9.0,-100.00,SE,127,3.0,11.0,46,0.00,,,0.00,0.000000,,2013-03-05 06:00:00,
2013-03-05 00:22:00,27.0,9.0,-100.00,SE,127,3.0,11.0,46,0.00,,,0.00,0.000000,,2013-03-05 06:22:00,
2013-03-05 00:32:00,27.0,9.0,-100.00,SE,127,3.0,11.0,46,0.00,,,0.00,0.000000,,2013-03-05 06:32:00,
2013-03-05 00:42:00,27.0,9.0,-100.00,SE,127,3.0,11.0,46,0.00,,,0.00,0.000000,,2013-03-05 06:42:00,
2013-03-05 00:52:00,27.0,9.0,-100.00,SE,127,3.0,11.0,46,0.00,,,0.00,0.000000,,2013-03-05 06:52:00,
2013-03-05 01:00:00,27.0,10.0,-100.00,SE,127,3.0,9.0,48,0.00,,,0.00,0.000000,,2013-03-05 07:00:00,
2013-03-05 01:22:00,27.0,10.0,-100.00,SE,127,3.0,9.0,48,0.00,,,0.00,0.000000,,2013-03-05 07:22:00,
2013-03-05 01:32:00,27.0,10.0,-100.00,SE,127,3.0,9.0,48,0.00,,,0.00,0.000000,,2013-03-05 07:32:00,
2013-03-05 01:42:00,27.0,10.0,-100.00,SE,127,3.0,9.0,48,0.00,,,0.00,0.000000,,2013-03-05 07:42:00,
2013-03-05 01:52:00,27.0,10.0,-100.00,SE,127,3.0,9.0,48,0.00,,,0.00,0.000000,,2013-03-05 07:52:00,
2013-03-05 03:00:00,25.0,12.0,-100.00,East,93,6.0,11.0,56,-99.99,,,0.00,0.000000,,2013-03-05 09:00:00,
2013-03-05 03:32:00,25.0,12.0,-100.00,East,93,6.0,11.0,56,-99.99,,,0.00,0.000000,,2013-03-05 09:32:00,
2013-03-05 03:43:00,25.0,12.0,-100.00,East,93,6.0,11.0,56,-99.99,,,0.00,0.000000,,2013-03-05 09:43:00,
2013-03-05 03:52:00,25.0,12.0,-100.00,East,93,6.0,11.0,56,-99.99,,,0.00,0.000000,,2013-03-05 09:52:00,
2013-03-05 04:00:00,23.0,9.0,-100.00,East,83,7.0,14.0,54,0.00,,,0.00,0.000000,,2013-03-05 10:00:00,
2013-03-05 04:22:00,23.0,9.0,-100.00,East,83,7.0,14.0,54,0.00,,,0.00,0.000000,,2013-03-05 10:22:00,
2013-03-05 04:32:00,23.0,9.0,-100.00,East,83,7.0,14.0,54,0.00,,,0.00,0.000000,,2013-03-05 10:32:00,
2013-03-05 04:42:00,23.0,9.0,-100.00,East,83,7.0,14.0,54,0.00,,,0.00,0.000000,,2013-03-05 10:42:00,
2013-03-05 04:52:00,23.0,9.0,-100.00,East,83,7.0,14.0,54,0.00,,,0.00,0.000000,,2013-03-05 10:52:00,
2013-03-05 05:00:00,22.0,7.0,-100.00,East,90,7.0,16.0,51,0.00,,,0.00,0.000000,,2013-03-05 11:00:00,
2013-03-05 05:22:00,22.0,7.0,-100.00,East,90,7.0,16.0,51,0.00,,,0.00,0.000000,,2013-03-05 11:22:00,
2013-03-05 05:32:00,22.0,7.0,-100.00,East,90,7.0,16.0,51,0.00,,,0.00,0.000000,,2013-03-05 11:32:00,
2013-03-05 05:42:00,22.0,7.0,-100.00,East,90,7.0,16.0,51,0.00,,,0.00,0.000000,,2013-03-05 11:42:00,
2013-03-05 05:52:00,22.0,7.0,-100.00,East,90,7.0,16.0,51,0.00,,,0.00,0.000000,,2013-03-05 11:52:00,
2013-03-05 06:00:00,21.0,9.0,-100.00,East,89,6.0,13.0,60,0.00,,,0.00,0.000000,,2013-03-05 12:00:00,
2013-03-05 06:32:00,21.0,9.0,-100.00,East,89,6.0,13.0,60,0.00,,,0.00,0.000000,,2013-03-05 12:32:00,
2013-03-05 06:42:00,21.0,9.0,-100.00,East,89,6.0,13.0,60,0.00,,,0.00,0.000000,,2013-03-05 12:42:00,
2013-03-05 06:52:00,21.0,9.0,-100.00,East,89,6.0,13.0,60,0.00,,,0.00,0.000000,,2013-03-05 12:52:00,
2013-03-05 07:00:00,22.0,11.0,-100.00,East,84,4.0,8.0,63,0.00,,,0.00,4.000000,,2013-03-05 13:00:00,
2013-03-05 07:32:00,22.0,11.0,-100.00,East,84,4.0,8.0,63,0.00,,,0.00,4.000000,,2013-03-05 13:32:00,
2013-03-05 07:42:00,22.0,11.0,-100.00,East,84,4.0,8.0,63,0.00,,,0.00,4.000000,,2013-03-05 13:42:00,
2013-03-05 07:52:00,22.0,11.0,-100.00,East,84,4.0,8.0,63,0.00,,,0.00,4.000000,,2013-03-05 13:52:00,
2013-03-05 08:00:00,23.0,12.0,-100.00,East,83,4.0,8.0,62,0.00,,,0.00,62.000000,,2013-03-05 14:00:00,
2013-03-05 08:32:00,23.0,12.0,-100.00,East,83,4.0,8.0,62,0.00,,,0.00,62.000000,,2013-03-05 14:32:00,
2013-03-05 08:42:00,23.0,12.0,-100.00,East,83,4.0,8.0,62,0.00,,,0.00,62.000000,,2013-03-05 14:42:00,
2013-03-05 08:52:00,23.0,12.0,-100.00,East,83,4.0,8.0,62,0.00,,,0.00,62.000000,,2013-03-05 14:52:00,
2013-03-05 09:00:00,25.0,11.0,-100.00,East,79,5.0,10.0,54,0.00,,,0.00,151.000000,,2013-03-05 15:00:00,
2013-03-05 09:32:00,25.0,11.0,-100.00,East,79,5.0,10.0,54,0.00,,,0.00,151.000000,,2013-03-05 15:32:00,
2013-03-05 09:42:00,25.0,11.0,-100.00,East,79,5.0,10.0,54,0.00,,,0.00,151.000000,,2013-03-05 15:42:00,
2013-03-05 09:52:00,25.0,11.0,-100.00,East,79,5.0,10.0,54,0.00,,,0.00,151.000000,,2013-03-05 15:52:00,
2013-03-05 10:00:00,27.0,10.0,-100.00,NE,40,6.0,11.0,49,0.00,,,0.00,232.000000,,2013-03-05 16:00:00,
2013-03-05 10:32:00,27.0,10.0,-100.00,NE,40,6.0,11.0,49,0.00,,,0.00,232.000000,,2013-03-05 16:32:00,
2013-03-05 10:42:00,27.0,10.0,-100.00,NE,40,6.0,11.0,49,0.00,,,0.00,232.000000,,2013-03-05 16:42:00,
2013-03-05 10:52:00,27.0,10.0,-100.00,NE,40,6.0,11.0,49,0.00,,,0.00,232.000000,,2013-03-05 16:52:00,
2013-03-05 11:00:00,28.0,9.0,-100.00,ENE,75,5.0,10.0,44,0.00,,,0.00,260.000000,,2013-03-05 17:00:00,
2013-03-05 11:32:00,28.0,9.0,-100.00,ENE,75,5.0,10.0,44,0.00,,,0.00,260.000000,,2013-03-05 17:32:00,
2013-03-05 11:42:00,28.0,9.0,-100.00,ENE,75,5.0,10.0,44,0.00,,,0.00,260.000000,,2013-03-05 17:42:00,
2013-03-05 11:52:00,28.0,9.0,-100.00,ENE,75,5.0,10.0,44,0.00,,,0.00,260.000000,,2013-03-05 17:52:00,
2013-03-05 12:00:00,29.0,8.0,-100.00,ENE,68,5.0,12.0,41,0.00,,,0.00,305.000000,,2013-03-05 18:00:00,
2013-03-05 12:32:00,29.0,8.0,-100.00,ENE,68,5.0,12.0,41,0.00,,,0.00,305.000000,,2013-03-05 18:32:00,
2013-03-05 12:42:00,29.0,8.0,-100.00,ENE,68,5.0,12.0,41,0.00,,,0.00,305.000000,,2013-03-05 18:42:00,
2013-03-05 12:53:00,29.0,8.0,-100.00,ENE,68,5.0,12.0,41,0.00,,,0.00,305.000000,,2013-03-05 18:53:00,
2013-03-05 13:00:00,29.0,12.0,-100.00,NE,34,6.0,15.0,49,0.00,,,0.00,339.000000,,2013-03-05 19:00:00,
2013-03-05 13:32:00,29.0,12.0,-100.00,NE,34,6.0,15.0,49,0.00,,,0.00,339.000000,,2013-03-05 19:32:00,
2013-03-05 13:42:00,29.0,12.0,-100.00,NE,34,6.0,15.0,49,0.00,,,0.00,339.000000,,2013-03-05 19:42:00,
2013-03-05 13:52:00,29.0,12.0,-100.00,NE,34,6.0,15.0,49,0.00,,,0.00,339.000000,,2013-03-05 19:52:00,
2013-03-05 14:00:00,28.0,13.0,-100.00,North,7,8.0,15.0,52,0.00,,,0.00,270.000000,,2013-03-05 20:00:00,
2013-03-05 14:22:00,28.0,13.0,-100.00,North,7,8.0,15.0,52,0.00,,,0.00,270.000000,,2013-03-05 20:22:00,
2013-03-05 14:32:00,28.0,13.0,-100.00,North,7,8.0,15.0,52,0.00,,,0.00,270.000000,,2013-03-05 20:32:00,
2013-03-05 14:42:00,28.0,13.0,-100.00,North,7,8.0,15.0,52,0.00,,,0.00,270.000000,,2013-03-05 20:42:00,
2013-03-05 14:52:00,28.0,13.0,-100.00,North,7,8.0,15.0,52,0.00,,,0.00,270.000000,,2013-03-05 20:52:00,
2013-03-05 15:00:00,27.0,16.0,-100.00,NNE,14,8.0,15.0,64,0.00,,,0.00,223.000000,,2013-03-05 21:00:00,
2013-03-05 15:32:00,27.0,16.0,-100.00,NNE,14,8.0,15.0,64,0.00,,,0.00,223.000000,,2013-03-05 21:32:00,
2013-03-05 15:42:00,27.0,16.0,-100.00,NNE,14,8.0,15.0,64,0.00,,,0.00,223.000000,,2013-03-05 21:42:00,
2013-03-05 15:52:00,27.0,16.0,-100.00,NNE,14,8.0,15.0,64,0.00,,,0.00,223.000000,,2013-03-05 21:52:00,
2013-03-05 16:00:00,25.0,17.0,-100.00,NE,40,7.0,15.0,72,0.00,,,0.00,109.000000,,2013-03-05 22:00:00,
2013-03-05 16:32:00,25.0,17.0,-100.00,NE,40,7.0,15.0,72,0.00,,,0.00,109.000000,,2013-03-05 22:32:00,
2013-03-05 16:42:00,25.0,17.0,-100.00,NE,40,7.0,15.0,72,0.00,,,0.00,109.000000,,2013-03-05 22:42:00,
2013-03-05 16:52:00,25.0,17.0,-100.00,NE,40,7.0,15.0,72,0.00,,,0.00,109.000000,,2013-03-05 22:52:00,
2013-03-05 17:00:00,24.0,17.0,-100.00,North,7,8.0,19.0,73,0.00,,,0.00,50.000000,,2013-03-05 23:00:00,
2013-03-05 17:32:00,24.0,17.0,-100.00,North,7,8.0,19.0,73,0.00,,,0.00,50.000000,,2013-03-05 23:32:00,
2013-03-05 17:42:00,24.0,17.0,-100.00,North,7,8.0,19.0,73,0.00,,,0.00,50.000000,,2013-03-05 23:42:00,
2013-03-05 17:53:00,24.0,17.0,-100.00,North,7,8.0,19.0,73,0.00,,,0.00,50.000000,,2013-03-05 23:53:00,
2013-03-05 18:00:00,23.0,19.0,-100.00,North,11,8.0,17.0,83,0.00,,,0.00,13.000000,,2013-03-06 00:00:00,
2013-03-05 18:22:00,23.0,19.0,-100.00,North,11,8.0,17.0,83,0.00,,,0.00,13.000000,,2013-03-06 00:22:00,
2013-03-05 18:32:00,23.0,19.0,-100.00,North,11,8.0,17.0,83,0.00,,,0.00,13.000000,,2013-03-06 00:32:00,
2013-03-05 18:42:00,23.0,19.0,-100.00,North,11,8.0,17.0,83,0.00,,,0.00,13.000000,,2013-03-06 00:42:00,
2013-03-05 18:52:00,23.0,19.0,-100.00,North,11,8.0,17.0,83,0.00,,,0.00,13.000000,,2013-03-06 00:52:00,
2013-03-05 19:00:00,22.0,19.0,-100.00,North,6,7.0,16.0,87,0.00,,,0.00,0.000000,,2013-03-06 01:00:00,
2013-03-05 19:32:00,22.0,19.0,-100.00,North,6,7.0,16.0,87,0.00,,,0.00,0.000000,,2013-03-06 01:32:00,
2013-03-05 19:42:00,22.0,19.0,-100.00,North,6,7.0,16.0,87,0.00,,,0.00,0.000000,,2013-03-06 01:42:00,
2013-03-05 19:52:00,22.0,19.0,-100.00,North,6,7.0,16.0,87,0.00,,,0.00,0.000000,,2013-03-06 01:52:00,
2013-03-05 20:00:00,21.0,17.0,-100.00,NE,34,7.0,13.0,85,0.00,,,0.00,0.000000,,2013-03-06 02:00:00,
2013-03-05 20:22:00,21.0,17.0,-100.00,NE,34,7.0,13.0,85,0.00,,,0.00,0.000000,,2013-03-06 02:22:00,
2013-03-05 20:32:00,21.0,17.0,-100.00,NE,34,7.0,13.0,85,0.00,,,0.00,0.000000,,2013-03-06 02:32:00,
2013-03-05 20:42:00,21.0,17.0,-100.00,NE,34,7.0,13.0,85,0.00,,,0.00,0.000000,,2013-03-06 02:42:00,
2013-03-05 20:52:00,21.0,17.0,-100.00,NE,34,7.0,13.0,85,0.00,,,0.00,0.000000,,2013-03-06 02:52:00,
2013-03-05 21:00:00,21.0,17.0,-100.00,NNE,22,6.0,15.0,85,0.00,,,0.00,0.000000,,2013-03-06 03:00:00,
2013-03-05 21:22:00,21.0,17.0,-100.00,NNE,22,6.0,15.0,85,0.00,,,0.00,0.000000,,2013-03-06 03:22:00,
2013-03-05 21:32:00,21.0,17.0,-100.00,NNE,22,6.0,15.0,85,0.00,,,0.00,0.000000,,2013-03-06 03:32:00,
2013-03-05 21:42:00,21.0,17.0,-100.00,NNE,22,6.0,15.0,85,0.00,,,0.00,0.000000,,2013-03-06 03:42:00,
2013-03-05 21:52:00,21.0,17.0,-100.00,NNE,22,6.0,15.0,85,0.00,,,0.00,0.000000,,2013-03-06 03:52:00,
2013-03-05 22:00:00,21.0,17.0,-100.00,NNE,13,6.0,15.0,86,0.00,,,0.00,0.000000,,2013-03-06 04:00:00,
2013-03-05 22:32:00,21.0,17.0,-100.00,NNE,13,6.0,15.0,86,0.00,,,0.00,0.000000,,2013-03-06 04:32:00,
2013-03-05 22:42:00,21.0,17.0,-100.00,NNE,13,6.0,15.0,86,0.00,,,0.00,0.000000,,2013-03-06 04:42:00,
2013-03-05 22:52:00,21.0,17.0,-100.00,NNE,13,6.0,15.0,86,0.00,,,0.00,0.000000,,2013-03-06 04:52:00,
2013-03-05 23:00:00,21.0,17.0,-100.00,North,356,6.0,13.0,83,0.00,,,0.00,0.000000,,2013-03-06 05:00:00,
2013-03-05 23:32:00,21.0,17.0,-100.00,North,356,6.0,13.0,83,0.00,,,0.00,0.000000,,2013-03-06 05:32:00,
2013-03-05 23:42:00,21.0,17.0,-100.00,North,356,6.0,13.0,83,0.00,,,0.00,0.000000,,2013-03-06 05:42:00,
2013-03-05 23:52:00,21.0,17.0,-100.00,North,356,6.0,13.0,83,0.00,,,0.00,0.000000,,2013-03-06 05:52:00,